Time;durP1;ratioP1;P1;durP2;ratioP2;P2;SDS_P1;SDS_P2;PMS_P1;PMS_P2;Temp;Humidity;BMP_temperature;BMP_pressure;BME280_temperature;BME280_humidity;BME280_pressure;Samples;Min_cycle;Max_cycle;Signal;HPM_P1;HPM_P2
2022/01/01 00:00:33;;;;;;;2.60;2.40;;;;;;;;;;4993199;28;20231;-79
2022/01/01 00:03:01;;;;;;;2.23;2.03;;;;;;;;;;4979323;28;20219;-79
2022/01/01 00:05:29;;;;;;;2.87;2.40;;;;;;;;;;4973889;28;20673;-80
2022/01/01 00:07:57;;;;;;;3.70;2.50;;;;;;;;;;4973389;28;20237;-79
2022/01/01 00:10:25;;;;;;;8.33;5.63;;;;;;;;;;4956511;28;20232;-79
2022/01/01 00:12:52;;;;;;;11.40;9.07;;;;;;;;;;4974024;28;20292;-79
2022/01/01 00:15:20;;;;;;;25.60;17.67;;;;;;;;;;4973938;28;20209;-79
2022/01/01 00:17:49;;;;;;;21.60;17.07;;;;;;;;;;4956530;28;20208;-79
2022/01/01 00:20:17;;;;;;;19.57;16.40;;;;;;;;;;4973642;28;20267;-79
2022/01/01 00:22:45;;;;;;;16.07;13.47;;;;;;;;;;4973904;28;20212;-79
2022/01/01 00:25:14;;;;;;;122.37;79.67;;;;;;;;;;4973568;28;20201;-79
2022/01/01 00:27:44;;;;;;;126.20;84.23;;;;;;;;;;4973717;28;20201;-78
2022/01/01 00:30:12;;;;;;;59.13;40.63;;;;;;;;;;4973940;28;20193;-79
2022/01/01 00:32:39;;;;;;;11.77;9.70;;;;;;;;;;4974298;28;20201;-79
2022/01/01 00:35:10;;;;;;;13.87;11.63;;;;;;;;;;4957343;28;20585;-81
2022/01/01 00:37:37;;;;;;;10.07;9.07;;;;;;;;;;4974481;28;20240;-80
2022/01/01 00:40:06;;;;;;;5.23;4.73;;;;;;;;;;4974576;28;20216;-80
2022/01/01 00:42:34;;;;;;;4.77;4.20;;;;;;;;;;4974732;28;20201;-80
2022/01/01 00:45:01;;;;;;;3.47;3.17;;;;;;;;;;4974253;28;20232;-80
2022/01/01 00:47:29;;;;;;;3.60;3.30;;;;;;;;;;4956901;28;20201;-80
2022/01/01 00:49:57;;;;;;;5.77;5.27;;;;;;;;;;4974165;28;20243;-80
2022/01/01 00:52:25;;;;;;;3.40;3.10;;;;;;;;;;4974464;28;20197;-79
2022/01/01 00:54:53;;;;;;;8.90;8.10;;;;;;;;;;4974081;28;20745;-79
2022/01/01 00:57:20;;;;;;;4.20;3.63;;;;;;;;;;4974040;28;20201;-79
2022/01/01 00:59:47;;;;;;;4.57;4.27;;;;;;;;;;4974121;28;20208;-79
2022/01/01 01:02:14;;;;;;;4.97;2.50;;;;;;;;;;4973862;28;20311;-80
2022/01/01 01:04:42;;;;;;;2.47;2.27;;;;;;;;;;4956733;28;20228;-80
2022/01/01 01:07:12;;;;;;;2.57;2.37;;;;;;;;;;4973800;28;20745;-80
2022/01/01 01:09:41;;;;;;;3.47;2.10;;;;;;;;;;4973316;28;20268;-79
2022/01/01 01:12:09;;;;;;;9.63;8.13;;;;;;;;;;4973604;28;20205;-79
2022/01/01 01:14:41;;;;;;;10.20;9.07;;;;;;;;;;4973819;28;20205;-79
2022/01/01 01:17:10;;;;;;;4.63;4.20;;;;;;;;;;4973713;28;20186;-79
2022/01/01 01:19:38;;;;;;;4.30;3.90;;;;;;;;;;4973698;28;20635;-80
2022/01/01 01:22:05;;;;;;;4.63;4.20;;;;;;;;;;4973922;28;20311;-79
2022/01/01 01:24:33;;;;;;;4.57;2.93;;;;;;;;;;4973879;28;20237;-79
2022/01/01 01:27:03;;;;;;;6.93;6.23;;;;;;;;;;4973530;28;20201;-79
2022/01/01 01:29:32;;;;;;;6.67;4.83;;;;;;;;;;4973490;28;20712;-79
2022/01/01 01:32:00;;;;;;;3.53;3.23;;;;;;;;;;4973510;28;20201;-79
2022/01/01 01:34:27;;;;;;;3.40;3.10;;;;;;;;;;4973483;28;20685;-79
2022/01/01 01:36:55;;;;;;;2.83;2.53;;;;;;;;;;4973704;28;20609;-79
2022/01/01 01:39:23;;;;;;;2.63;2.00;;;;;;;;;;4972894;28;20201;-79
2022/01/01 01:41:52;;;;;;;3.10;2.03;;;;;;;;;;4973244;28;20268;-79
2022/01/01 01:44:30;;;;;;;2.00;1.83;;;;;;;;;;4990207;28;20243;-79
2022/01/01 01:46:59;;;;;;;1.83;1.60;;;;;;;;;;4993301;28;20215;-79
2022/01/01 01:49:27;;;;;;;14.50;12.10;;;;;;;;;;4992631;28;20259;-79
2022/01/01 01:51:54;;;;;;;17.30;13.33;;;;;;;;;;4992412;28;20204;-79
2022/01/01 01:54:22;;;;;;;32.07;25.57;;;;;;;;;;4992750;28;20202;-79
2022/01/01 01:56:50;;;;;;;16.43;12.47;;;;;;;;;;4992636;28;20266;-79
2022/01/01 01:59:17;;;;;;;13.80;12.40;;;;;;;;;;4992706;28;20235;-79
2022/01/01 02:01:46;;;;;;;8.43;7.53;;;;;;;;;;4992466;28;20224;-80
2022/01/01 02:04:13;;;;;;;6.17;4.53;;;;;;;;;;4990069;28;20205;-80
2022/01/01 02:06:41;;;;;;;5.50;5.00;;;;;;;;;;4992502;28;20228;-80
2022/01/01 02:09:11;;;;;;;3.50;3.20;;;;;;;;;;4992846;28;20254;-80
2022/01/01 02:11:39;;;;;;;4.33;2.47;;;;;;;;;;4975296;28;20259;-80
2022/01/01 02:14:19;;;;;;;3.17;2.70;;;;;;;;;;4992591;28;20211;-80
2022/01/01 02:17:07;;;;;;;3.50;2.67;;;;;;;;;;4992850;28;20266;-79
2022/01/01 02:19:54;;;;;;;2.07;1.90;;;;;;;;;;4992581;28;20283;-80
2022/01/01 02:22:24;;;;;;;2.03;1.93;;;;;;;;;;4992039;28;20227;-80
2022/01/01 02:24:51;;;;;;;1.67;1.57;;;;;;;;;;4992500;28;20287;-79
2022/01/01 02:27:19;;;;;;;32.77;15.07;;;;;;;;;;4992244;28;20243;-80
2022/01/01 02:29:47;;;;;;;23.97;13.83;;;;;;;;;;4992264;28;20243;-80
2022/01/01 02:32:15;;;;;;;202.30;94.80;;;;;;;;;;4991339;28;20203;-79
2022/01/01 02:34:43;;;;;;;31.23;16.93;;;;;;;;;;4990634;28;20792;-80
2022/01/01 02:37:11;;;;;;;12.83;7.60;;;;;;;;;;4992467;28;20231;-80
2022/01/01 02:39:41;;;;;;;3.13;2.47;;;;;;;;;;4992236;28;20197;-80
2022/01/01 02:42:10;;;;;;;1.67;1.57;;;;;;;;;;4992312;28;20240;-80
2022/01/01 02:44:43;;;;;;;1.50;1.40;;;;;;;;;;4992135;28;20207;-79
2022/01/01 02:47:10;;;;;;;1.77;1.50;;;;;;;;;;4992166;28;20188;-79
2022/01/01 02:49:37;;;;;;;1.57;1.47;;;;;;;;;;4993852;28;20621;-79
2022/01/01 02:52:05;;;;;;;1.50;1.40;;;;;;;;;;4995806;28;20207;-79
2022/01/01 02:54:33;;;;;;;1.40;1.30;;;;;;;;;;4995699;28;20290;-79
2022/01/01 02:57:01;;;;;;;1.67;1.40;;;;;;;;;;4995687;28;20200;-80
2022/01/01 02:59:29;;;;;;;5.73;4.50;;;;;;;;;;4995601;28;20197;-80
2022/01/01 03:01:56;;;;;;;5.17;4.30;;;;;;;;;;4995506;28;20224;-79
2022/01/01 03:04:23;;;;;;;12.47;9.27;;;;;;;;;;4995587;28;20243;-79
2022/01/01 03:06:54;;;;;;;13.60;11.10;;;;;;;;;;4995716;28;20310;-79
2022/01/01 03:09:25;;;;;;;12.63;8.80;;;;;;;;;;4995724;28;20720;-82
2022/01/01 03:11:52;;;;;;;8.40;6.77;;;;;;;;;;4995131;28;20197;-80
2022/01/01 03:14:21;;;;;;;4.23;3.83;;;;;;;;;;4995721;28;20290;-80
2022/01/01 03:16:49;;;;;;;4.07;3.50;;;;;;;;;;4995419;28;20754;-79
2022/01/01 03:19:19;;;;;;;5.63;3.20;;;;;;;;;;4995690;28;20263;-79
2022/01/01 03:21:46;;;;;;;3.00;2.70;;;;;;;;;;4995296;28;20220;-80
2022/01/01 03:24:14;;;;;;;2.60;2.40;;;;;;;;;;4995608;28;20262;-79
2022/01/01 03:26:41;;;;;;;3.70;3.40;;;;;;;;;;4995673;28;20258;-79
2022/01/01 03:29:09;;;;;;;15.23;10.70;;;;;;;;;;4977778;28;20631;-79
2022/01/01 03:31:38;;;;;;;4.77;3.53;;;;;;;;;;4995046;28;20240;-80
2022/01/01 03:34:05;;;;;;;9.43;5.67;;;;;;;;;;4995233;28;20203;-80
2022/01/01 03:36:33;;;;;;;3.97;2.80;;;;;;;;;;4995479;28;20259;-79
2022/01/01 03:39:01;;;;;;;2.23;2.03;;;;;;;;;;4995015;28;20259;-79
2022/01/01 03:41:28;;;;;;;1.70;1.60;;;;;;;;;;4995058;28;20658;-80
2022/01/01 03:43:57;;;;;;;1.47;1.37;;;;;;;;;;4995266;28;20234;-79
2022/01/01 03:46:24;;;;;;;1.43;1.33;;;;;;;;;;4994672;28;20201;-80
2022/01/01 03:48:53;;;;;;;3.57;3.17;;;;;;;;;;4994601;28;20196;-80
2022/01/01 03:51:21;;;;;;;9.97;7.53;;;;;;;;;;4994732;28;20196;-79
2022/01/01 03:53:48;;;;;;;10.80;7.77;;;;;;;;;;4989638;28;20209;-79
2022/01/01 03:56:18;;;;;;;8.53;7.43;;;;;;;;;;4975323;28;20240;-79
2022/01/01 03:58:45;;;;;;;6.07;5.20;;;;;;;;;;4975533;28;20201;-80
2022/01/01 04:01:12;;;;;;;7.13;6.13;;;;;;;;;;4974642;28;20201;-80
2022/01/01 04:03:40;;;;;;;4.77;4.07;;;;;;;;;;4975436;28;20231;-81
2022/01/01 04:06:09;;;;;;;5.93;4.13;;;;;;;;;;4975183;28;20288;-80
2022/01/01 04:08:36;;;;;;;3.67;3.37;;;;;;;;;;4975019;28;20260;-80
2022/01/01 04:11:03;;;;;;;5.90;4.83;;;;;;;;;;4975280;28;20205;-80
2022/01/01 04:13:32;;;;;;;40.07;29.10;;;;;;;;;;4974051;28;20244;-80
2022/01/01 04:15:59;;;;;;;25.23;20.07;;;;;;;;;;4974788;28;20201;-80
2022/01/01 04:18:37;;;;;;;7.07;5.87;;;;;;;;;;4974453;28;20648;-80
2022/01/01 04:21:05;;;;;;;3.07;2.63;;;;;;;;;;4974622;28;20188;-80
2022/01/01 04:23:34;;;;;;;2.53;2.00;;;;;;;;;;4974701;28;20303;-80
2022/01/01 04:26:02;;;;;;;2.10;1.90;;;;;;;;;;4974817;28;20275;-80
2022/01/01 04:28:29;;;;;;;2.30;2.20;;;;;;;;;;4974367;28;20241;-80
2022/01/01 04:30:56;;;;;;;4.77;1.90;;;;;;;;;;4974530;28;20209;-80
2022/01/01 04:33:24;;;;;;;1.70;1.60;;;;;;;;;;4974848;28;20279;-80
2022/01/01 04:35:51;;;;;;;2.40;2.20;;;;;;;;;;4974360;28;20736;-81
2022/01/01 04:38:35;;;;;;;4.53;2.47;;;;;;;;;;4974083;28;20209;-80
2022/01/01 04:41:04;;;;;;;1.30;1.20;;;;;;;;;;4974448;28;20766;-79
2022/01/01 04:43:32;;;;;;;1.40;1.30;;;;;;;;;;4974083;28;20314;-80
2022/01/01 04:46:02;;;;;;;3.50;3.20;;;;;;;;;;4974185;28;20201;-80
2022/01/01 04:48:29;;;;;;;9.23;8.27;;;;;;;;;;4974399;28;20208;-80
2022/01/01 04:50:57;;;;;;;3.73;3.23;;;;;;;;;;4974322;28;20232;-80
2022/01/01 04:53:25;;;;;;;4.13;2.10;;;;;;;;;;4973980;28;20201;-80
2022/01/01 04:55:52;;;;;;;1.87;1.50;;;;;;;;;;4974167;28;20200;-80
2022/01/01 04:58:21;;;;;;;1.93;1.73;;;;;;;;;;4974243;28;20287;-79
2022/01/01 05:00:51;;;;;;;96.33;83.87;;;;;;;;;;4973926;28;20208;-80
2022/01/01 05:03:18;;;;;;;13.33;11.97;;;;;;;;;;4973775;28;20283;-80
2022/01/01 05:05:45;;;;;;;4.63;4.23;;;;;;;;;;4973882;28;20255;-80
2022/01/01 05:08:15;;;;;;;5.20;4.70;;;;;;;;;;4974111;28;20668;-80
2022/01/01 05:10:42;;;;;;;5.80;4.37;;;;;;;;;;4973864;28;20295;-80
2022/01/01 05:13:10;;;;;;;36.60;16.60;;;;;;;;;;4973040;28;20291;-80
2022/01/01 05:15:38;;;;;;;5.47;3.77;;;;;;;;;;4973767;28;20200;-80
2022/01/01 05:18:06;;;;;;;4.07;2.77;;;;;;;;;;4972926;28;20201;-80
2022/01/01 05:20:33;;;;;;;4.20;3.60;;;;;;;;;;4973593;28;20636;-80
2022/01/01 05:23:00;;;;;;;12.50;8.07;;;;;;;;;;4973544;28;20225;-80
2022/01/01 05:25:28;;;;;;;14.30;9.57;;;;;;;;;;4973694;28;20231;-80
2022/01/01 05:27:56;;;;;;;81.30;33.63;;;;;;;;;;4973656;28;20209;-80
2022/01/01 05:30:24;;;;;;;21.07;11.17;;;;;;;;;;4973186;28;20296;-80
2022/01/01 05:32:52;;;;;;;11.63;6.53;;;;;;;;;;4973492;28;20247;-80
2022/01/01 05:35:20;;;;;;;11.43;5.93;;;;;;;;;;4973271;28;20240;-80
2022/01/01 05:37:47;;;;;;;9.93;6.23;;;;;;;;;;4973854;28;20259;-80
2022/01/01 05:40:15;;;;;;;6.70;4.37;;;;;;;;;;4973422;28;20233;-80
2022/01/01 05:42:43;;;;;;;19.40;13.90;;;;;;;;;;4973898;28;20229;-80
2022/01/01 05:45:10;;;;;;;11.53;7.37;;;;;;;;;;4973220;28;20263;-80
2022/01/01 05:47:38;;;;;;;7.97;6.47;;;;;;;;;;4973545;28;20263;-81
2022/01/01 05:50:08;;;;;;;48.07;19.47;;;;;;;;;;4973301;28;20637;-81
2022/01/01 05:52:35;;;;;;;19.43;9.97;;;;;;;;;;4973646;28;20201;-81
2022/01/01 05:55:02;;;;;;;13.73;8.07;;;;;;;;;;4973343;28;20197;-81
2022/01/01 05:57:29;;;;;;;10.10;5.60;;;;;;;;;;4973296;28;20240;-81
2022/01/01 05:59:57;;;;;;;7.30;3.83;;;;;;;;;;4973331;28;20247;-81
2022/01/01 06:02:24;;;;;;;7.73;4.27;;;;;;;;;;4973033;28;20221;-81
2022/01/01 06:04:52;;;;;;;16.03;9.33;;;;;;;;;;4973150;28;20259;-81
2022/01/01 06:07:20;;;;;;;15.40;13.27;;;;;;;;;;4972953;28;20233;-81
2022/01/01 06:09:49;;;;;;;10.50;9.07;;;;;;;;;;4973351;28;20232;-81
2022/01/01 06:12:17;;;;;;;14.60;9.03;;;;;;;;;;4973430;28;20193;-81
2022/01/01 06:14:44;;;;;;;11.73;7.17;;;;;;;;;;4973482;28;20224;-80
2022/01/01 06:17:11;;;;;;;8.23;5.20;;;;;;;;;;4973004;28;20260;-80
2022/01/01 06:19:39;;;;;;;4.93;3.97;;;;;;;;;;4973552;28;20205;-81
2022/01/01 06:22:06;;;;;;;3.97;3.00;;;;;;;;;;4972831;28;22125;-80
2022/01/01 06:24:35;;;;;;;2.17;1.70;;;;;;;;;;4974384;28;20221;-81
2022/01/01 06:27:03;;;;;;;1.63;1.53;;;;;;;;;;4976856;28;20204;-81
2022/01/01 06:29:31;;;;;;;1.60;1.50;;;;;;;;;;4977032;28;20295;-80
2022/01/01 06:31:58;;;;;;;1.33;1.23;;;;;;;;;;4976564;28;20557;-81
2022/01/01 06:34:26;;;;;;;1.10;1.10;;;;;;;;;;4981506;28;20215;-80
2022/01/01 06:36:54;;;;;;;2.83;2.20;;;;;;;;;;4996198;28;20231;-80
2022/01/01 06:39:21;;;;;;;3.00;1.60;;;;;;;;;;4996294;28;20207;-81
2022/01/01 06:41:50;;;;;;;4.33;3.10;;;;;;;;;;4996064;28;20624;-80
2022/01/01 06:44:17;;;;;;;7.10;5.53;;;;;;;;;;4995809;28;20259;-81
2022/01/01 06:46:44;;;;;;;4.90;4.43;;;;;;;;;;4988033;28;20588;-80
2022/01/01 06:49:12;;;;;;;5.17;3.70;;;;;;;;;;4980003;28;20591;-80
2022/01/01 06:51:39;;;;;;;3.37;2.90;;;;;;;;;;4976335;28;20240;-79
2022/01/01 06:54:07;;;;;;;21.17;12.40;;;;;;;;;;4976163;28;20753;-79
2022/01/01 06:56:34;;;;;;;21.80;14.83;;;;;;;;;;4976563;28;20232;-80
2022/01/01 06:59:03;;;;;;;14.67;11.23;;;;;;;;;;4976213;28;20197;-80
2022/01/01 07:01:30;;;;;;;20.17;15.47;;;;;;;;;;4976514;28;20201;-80
2022/01/01 07:03:59;;;;;;;10.80;8.77;;;;;;;;;;4987720;28;20763;-80
2022/01/01 07:06:27;;;;;;;5.17;3.17;;;;;;;;;;4977734;28;20274;-79
2022/01/01 07:08:54;;;;;;;1.77;1.67;;;;;;;;;;4995923;28;20571;-79
2022/01/01 07:11:22;;;;;;;1.90;1.70;;;;;;;;;;4995664;28;20585;-79
2022/01/01 07:13:50;;;;;;;2.23;2.03;;;;;;;;;;4978174;28;20192;-79
2022/01/01 07:16:20;;;;;;;2.17;1.97;;;;;;;;;;4995289;28;20609;-79
2022/01/01 07:18:48;;;;;;;1.90;1.80;;;;;;;;;;4996136;28;20242;-79
2022/01/01 07:21:15;;;;;;;2.33;1.70;;;;;;;;;;4995462;28;20325;-79
2022/01/01 07:23:43;;;;;;;16.63;10.00;;;;;;;;;;4995069;28;20318;-79
2022/01/01 07:26:10;;;;;;;13.87;8.93;;;;;;;;;;4988651;28;20209;-80
2022/01/01 07:28:38;;;;;;;5.50;4.50;;;;;;;;;;4982724;28;20209;-79
2022/01/01 07:31:05;;;;;;;4.37;2.93;;;;;;;;;;4975831;28;20243;-79
2022/01/01 07:33:34;;;;;;;2.43;1.70;;;;;;;;;;4975573;28;20288;-80
2022/01/01 07:36:01;;;;;;;61.87;53.93;;;;;;;;;;4974588;28;20205;-79
2022/01/01 07:38:28;;;;;;;87.30;63.37;;;;;;;;;;4975881;28;20234;-79
2022/01/01 07:40:55;;;;;;;114.43;89.67;;;;;;;;;;4975574;28;20231;-79
2022/01/01 07:43:23;;;;;;;49.90;44.70;;;;;;;;;;4975847;28;20235;-80
2022/01/01 07:45:51;;;;;;;7.97;6.87;;;;;;;;;;4975218;28;20196;-80
2022/01/01 07:48:18;;;;;;;1.40;1.30;;;;;;;;;;4975581;28;20236;-80
2022/01/01 07:50:47;;;;;;;1.70;1.53;;;;;;;;;;4975687;28;20643;-80
2022/01/01 07:53:15;;;;;;;1.80;1.27;;;;;;;;;;4975122;28;20197;-81
2022/01/01 07:55:42;;;;;;;0.90;0.90;;;;;;;;;;4975774;28;20197;-80
2022/01/01 07:58:09;;;;;;;23.37;15.90;;;;;;;;;;4975454;28;20283;-81
2022/01/01 08:00:37;;;;;;;7.03;5.40;;;;;;;;;;4975417;28;20654;-81
2022/01/01 08:03:04;;;;;;;3.40;3.10;;;;;;;;;;4957987;28;20225;-81
2022/01/01 08:05:31;;;;;;;1.83;1.20;;;;;;;;;;4975093;28;20635;-82
2022/01/01 08:08:01;;;;;;;2.67;1.10;;;;;;;;;;4975298;28;20236;-82
2022/01/01 08:10:28;;;;;;;1.30;1.20;;;;;;;;;;4975110;28;20205;-81
2022/01/01 08:12:56;;;;;;;0.80;0.80;;;;;;;;;;4975112;28;20235;-82
2022/01/01 08:15:23;;;;;;;2.17;2.00;;;;;;;;;;4975017;28;20319;-80
2022/01/01 08:17:51;;;;;;;43.80;28.87;;;;;;;;;;4974861;28;20197;-81
2022/01/01 08:20:19;;;;;;;26.03;19.47;;;;;;;;;;4974496;28;20670;-81
2022/01/01 08:22:46;;;;;;;11.30;10.07;;;;;;;;;;4974888;28;20228;-81
2022/01/01 08:25:16;;;;;;;2.80;2.60;;;;;;;;;;4974744;28;20256;-81
2022/01/01 08:27:43;;;;;;;5.03;4.63;;;;;;;;;;4974913;28;20197;-81
2022/01/01 08:30:14;;;;;;;8.50;6.80;;;;;;;;;;4974926;28;20566;-81
2022/01/01 08:32:41;;;;;;;37.63;26.40;;;;;;;;;;4974039;28;20240;-81
2022/01/01 08:35:09;;;;;;;22.17;19.47;;;;;;;;;;4974184;28;20255;-81
2022/01/01 08:37:37;;;;;;;31.77;24.13;;;;;;;;;;4974267;28;20201;-81
2022/01/01 08:40:05;;;;;;;24.23;21.63;;;;;;;;;;4974147;28;20645;-81
2022/01/01 08:42:34;;;;;;;18.33;15.93;;;;;;;;;;4974122;28;20200;-81
2022/01/01 08:45:02;;;;;;;10.60;9.07;;;;;;;;;;4974181;28;20662;-81
2022/01/01 08:47:29;;;;;;;9.17;8.27;;;;;;;;;;4974076;28;20295;-82
2022/01/01 08:49:57;;;;;;;6.33;3.90;;;;;;;;;;4974233;28;20325;-81
2022/01/01 08:52:25;;;;;;;14.20;10.30;;;;;;;;;;4974583;28;20201;-81
2022/01/01 08:54:56;;;;;;;9.87;8.77;;;;;;;;;;4974512;28;20329;-81
2022/01/01 08:57:25;;;;;;;8.13;6.40;;;;;;;;;;4974488;28;20226;-81
2022/01/01 08:59:54;;;;;;;3.70;3.40;;;;;;;;;;4974118;28;20674;-81
2022/01/01 09:02:23;;;;;;;10.03;9.07;;;;;;;;;;4974203;28;20205;-81
2022/01/01 09:04:53;;;;;;;8.07;7.27;;;;;;;;;;4956742;28;20235;-81
2022/01/01 09:07:20;;;;;;;8.27;7.47;;;;;;;;;;4974065;28;20237;-81
2022/01/01 09:09:48;;;;;;;9.57;8.63;;;;;;;;;;4957006;28;20201;-81
2022/01/01 09:12:16;;;;;;;5.10;4.67;;;;;;;;;;4973774;28;20200;-81
2022/01/01 09:14:43;;;;;;;4.80;4.30;;;;;;;;;;4956713;28;20200;-81
2022/01/01 09:17:12;;;;;;;4.43;4.03;;;;;;;;;;4973900;28;20753;-81
2022/01/01 09:19:39;;;;;;;3.10;2.90;;;;;;;;;;4974184;28;20259;-81
2022/01/01 09:22:07;;;;;;;4.17;3.83;;;;;;;;;;4973981;28;20637;-82
2022/01/01 09:24:35;;;;;;;2.90;2.70;;;;;;;;;;4973525;28;20234;-81
2022/01/01 09:27:03;;;;;;;2.40;2.20;;;;;;;;;;4973633;28;20197;-81
2022/01/01 09:29:30;;;;;;;3.07;2.87;;;;;;;;;;4974031;28;20256;-81
2022/01/01 09:31:58;;;;;;;4.23;3.60;;;;;;;;;;4973493;28;20606;-82
2022/01/01 09:34:27;;;;;;;8.43;7.63;;;;;;;;;;4956248;28;20279;-82
2022/01/01 09:36:54;;;;;;;6.43;5.93;;;;;;;;;;4990952;28;20236;-81
2022/01/01 09:39:22;;;;;;;4.40;4.00;;;;;;;;;;4988540;28;20676;-81
2022/01/01 09:41:49;;;;;;;3.93;2.93;;;;;;;;;;4975280;28;20213;-81
2022/01/01 09:44:18;;;;;;;3.67;3.37;;;;;;;;;;4973268;28;20633;-81
2022/01/01 09:46:47;;;;;;;5.93;5.30;;;;;;;;;;4981368;28;20266;-82
2022/01/01 09:49:16;;;;;;;4.03;3.73;;;;;;;;;;4992670;28;20259;-82
2022/01/01 09:51:45;;;;;;;45.23;8.13;;;;;;;;;;4989826;28;20299;-82
2022/01/01 09:54:13;;;;;;;8.90;7.77;;;;;;;;;;4973092;28;20193;-82
2022/01/01 09:56:40;;;;;;;4.63;4.13;;;;;;;;;;4973322;28;20237;-82
2022/01/01 09:59:08;;;;;;;13.97;7.97;;;;;;;;;;4973823;28;20226;-82
2022/01/01 10:01:35;;;;;;;3.03;2.83;;;;;;;;;;4977278;28;20200;-81
2022/01/01 10:04:12;;;;;;;2.30;2.10;;;;;;;;;;4987760;28;20710;-82
2022/01/01 10:06:39;;;;;;;1.83;1.10;;;;;;;;;;4996847;28;20310;-82
2022/01/01 10:09:09;;;;;;;2.37;2.20;;;;;;;;;;4996942;28;20228;-82
2022/01/01 10:11:37;;;;;;;2.37;2.17;;;;;;;;;;4996671;28;20657;-82
2022/01/01 10:14:07;;;;;;;2.40;2.03;;;;;;;;;;4996728;28;20196;-82
2022/01/01 10:16:41;;;;;;;3.90;3.50;;;;;;;;;;4996795;28;20632;-82
2022/01/01 10:19:09;;;;;;;3.00;2.70;;;;;;;;;;4996706;28;20267;-82
2022/01/01 10:21:41;;;;;;;9.63;6.90;;;;;;;;;;4996391;28;20227;-82
2022/01/01 10:24:18;;;;;;;7.97;6.70;;;;;;;;;;4996349;28;20220;-82
2022/01/01 10:29:33;;;;;;;9.87;8.87;;;;;;;;;;4996271;28;20218;-82
2022/01/01 10:32:02;;;;;;;5.70;5.20;;;;;;;;;;4996038;28;20206;-82
2022/01/01 10:34:31;;;;;;;2.93;2.67;;;;;;;;;;4996067;28;20261;-82
2022/01/01 10:36:58;;;;;;;1.67;1.57;;;;;;;;;;4996091;28;20223;-82
2022/01/01 10:39:28;;;;;;;2.63;2.43;;;;;;;;;;4996177;28;20196;-82
2022/01/01 10:41:58;;;;;;;2.63;2.33;;;;;;;;;;4996275;28;20224;-82
2022/01/01 10:44:30;;;;;;;4.27;3.83;;;;;;;;;;4995826;28;20224;-82
2022/01/01 10:46:58;;;;;;;2.83;2.47;;;;;;;;;;4995327;28;20304;-82
2022/01/01 10:49:34;;;;;;;9.03;6.83;;;;;;;;;;4995988;28;20239;-82
2022/01/01 10:52:15;;;;;;;5.97;4.47;;;;;;;;;;4995816;28;20323;-83
2022/01/01 10:54:54;;;;;;;3.43;3.23;;;;;;;;;;4996167;28;20239;-82
2022/01/01 10:57:26;;;;;;;2.83;2.03;;;;;;;;;;4995839;28;20190;-82
2022/01/01 11:00:06;;;;;;;3.87;3.27;;;;;;;;;;4995609;28;20243;-83
2022/01/01 11:02:34;;;;;;;2.60;2.40;;;;;;;;;;4995633;28;20184;-82
2022/01/01 11:05:03;;;;;;;1.80;1.70;;;;;;;;;;4995385;28;20224;-82
2022/01/01 11:07:30;;;;;;;2.33;2.20;;;;;;;;;;4995396;28;20232;-83
2022/01/01 11:10:00;;;;;;;2.30;2.10;;;;;;;;;;4994985;28;20200;-83
2022/01/01 11:12:29;;;;;;;2.60;2.40;;;;;;;;;;4994657;28;20247;-83
2022/01/01 11:14:57;;;;;;;2.73;2.13;;;;;;;;;;4995550;28;20232;-84
2022/01/01 11:17:24;;;;;;;2.30;2.10;;;;;;;;;;4995420;28;20593;-83
2022/01/01 11:19:55;;;;;;;3.70;2.40;;;;;;;;;;4995663;28;20209;-83
2022/01/01 11:22:22;;;;;;;2.33;2.03;;;;;;;;;;4995249;28;20189;-83
2022/01/01 11:24:50;;;;;;;2.60;2.40;;;;;;;;;;4995035;28;20311;-83
2022/01/01 11:27:18;;;;;;;3.83;3.30;;;;;;;;;;4995424;28;20209;-83
2022/01/01 11:29:50;;;;;;;3.13;2.27;;;;;;;;;;4995039;28;20263;-83
2022/01/01 11:32:19;;;;;;;2.20;1.90;;;;;;;;;;4995121;28;20200;-83
2022/01/01 11:34:49;;;;;;;2.50;1.80;;;;;;;;;;4995162;28;20679;-82
2022/01/01 11:37:16;;;;;;;2.20;2.00;;;;;;;;;;4994344;28;20196;-82
2022/01/01 11:39:44;;;;;;;1.80;1.70;;;;;;;;;;4987207;28;20236;-82
2022/01/01 11:42:13;;;;;;;1.63;1.53;;;;;;;;;;4975331;28;20201;-83
2022/01/01 11:44:44;;;;;;;1.80;1.70;;;;;;;;;;4975540;28;20256;-83
2022/01/01 11:47:20;;;;;;;2.97;1.50;;;;;;;;;;4975389;28;20248;-83
2022/01/01 11:49:47;;;;;;;1.50;1.40;;;;;;;;;;4975609;28;20212;-83
2022/01/01 11:52:36;;;;;;;1.30;1.20;;;;;;;;;;4975308;28;20296;-82
2022/01/01 11:55:06;;;;;;;1.73;1.63;;;;;;;;;;4975661;28;20185;-83
2022/01/01 11:57:34;;;;;;;1.80;1.70;;;;;;;;;;4958019;28;20211;-83
2022/01/01 12:00:11;;;;;;;1.47;1.37;;;;;;;;;;4957965;28;20205;-83
2022/01/01 12:02:44;;;;;;;1.87;1.77;;;;;;;;;;4957966;28;20259;-82
2022/01/01 12:05:33;;;;;;;1.90;1.80;;;;;;;;;;4974689;28;20267;-82
2022/01/01 12:08:01;;;;;;;1.70;1.60;;;;;;;;;;4974944;28;20237;-82
2022/01/01 12:10:32;;;;;;;3.43;2.37;;;;;;;;;;4975267;28;20201;-83
2022/01/01 12:13:00;;;;;;;1.50;1.40;;;;;;;;;;4975334;28;20225;-82
2022/01/01 12:15:37;;;;;;;1.80;1.70;;;;;;;;;;4957562;28;20659;-82
2022/01/01 12:18:06;;;;;;;1.20;1.20;;;;;;;;;;4974754;28;20631;-82
2022/01/01 12:20:36;;;;;;;1.43;1.33;;;;;;;;;;4975188;28;20201;-82
2022/01/01 12:23:06;;;;;;;1.83;1.73;;;;;;;;;;4974598;28;20255;-82
2022/01/01 12:25:34;;;;;;;1.40;1.30;;;;;;;;;;4974714;28;20620;-82
2022/01/01 12:28:04;;;;;;;5.57;4.40;;;;;;;;;;4974802;28;20232;-82
2022/01/01 12:30:39;;;;;;;2.80;2.57;;;;;;;;;;4974872;28;20191;-82
2022/01/01 12:33:08;;;;;;;7.13;1.63;;;;;;;;;;4957445;28;20281;-82
2022/01/01 12:35:48;;;;;;;1.67;1.57;;;;;;;;;;4957102;28;20197;-82
2022/01/01 12:38:23;;;;;;;3.90;1.73;;;;;;;;;;4973883;28;20197;-82
2022/01/01 12:40:58;;;;;;;1.40;1.30;;;;;;;;;;4974668;28;20643;-82
2022/01/01 12:43:26;;;;;;;4.10;1.67;;;;;;;;;;4974527;28;20668;-82
2022/01/01 12:45:59;;;;;;;3.53;1.30;;;;;;;;;;4974709;28;20320;-82
2022/01/01 12:48:27;;;;;;;11.03;8.90;;;;;;;;;;4974742;28;20185;-83
2022/01/01 12:50:59;;;;;;;2.17;1.80;;;;;;;;;;4974510;28;20225;-83
2022/01/01 12:53:27;;;;;;;2.80;1.57;;;;;;;;;;4974187;28;20303;-83
2022/01/01 12:56:08;;;;;;;1.33;1.20;;;;;;;;;;4974060;28;20668;-83
2022/01/01 12:58:41;;;;;;;2.23;2.03;;;;;;;;;;4956975;28;20740;-83
2022/01/01 13:01:17;;;;;;;1.60;1.50;;;;;;;;;;4973820;28;20185;-83
2022/01/01 13:03:47;;;;;;;1.00;1.00;;;;;;;;;;4973875;28;20283;-82
2022/01/01 13:06:30;;;;;;;1.97;1.40;;;;;;;;;;4973449;28;20714;-82
2022/01/01 13:09:00;;;;;;;1.40;1.30;;;;;;;;;;4974234;28;20333;-83
2022/01/01 13:11:28;;;;;;;4.63;3.53;;;;;;;;;;4974267;28;20224;-83
2022/01/01 13:13:55;;;;;;;2.80;2.33;;;;;;;;;;4973983;28;20205;-82
2022/01/01 13:16:25;;;;;;;8.97;8.07;;;;;;;;;;4973873;28;20238;-83
2022/01/01 13:18:52;;;;;;;4.93;3.67;;;;;;;;;;4974111;28;20287;-83
2022/01/01 13:21:20;;;;;;;3.93;2.70;;;;;;;;;;4973551;28;20233;-83
2022/01/01 13:23:47;;;;;;;2.20;2.00;;;;;;;;;;4973967;28;20293;-83
2022/01/01 13:26:15;;;;;;;2.70;1.30;;;;;;;;;;4973780;28;20276;-83
2022/01/01 13:28:42;;;;;;;2.57;2.37;;;;;;;;;;4973377;28;20289;-82
2022/01/01 13:31:11;;;;;;;1.53;1.43;;;;;;;;;;4973586;28;20205;-82
2022/01/01 13:33:45;;;;;;;2.17;1.77;;;;;;;;;;5009045;28;20204;-82
2022/01/01 13:36:12;;;;;;;1.57;1.30;;;;;;;;;;5012425;28;20195;-83
2022/01/01 13:38:39;;;;;;;2.00;1.90;;;;;;;;;;5008969;28;20203;-83
2022/01/01 13:41:07;;;;;;;1.80;1.70;;;;;;;;;;4992136;28;20352;-84
2022/01/01 13:43:36;;;;;;;1.70;1.60;;;;;;;;;;4992135;28;20252;-83
2022/01/01 13:46:13;;;;;;;3.17;2.70;;;;;;;;;;4992290;28;20235;-83
2022/01/01 13:48:44;;;;;;;2.90;2.10;;;;;;;;;;4992760;28;20192;-83
2022/01/01 13:51:12;;;;;;;2.30;2.10;;;;;;;;;;4992678;28;20716;-82
2022/01/01 13:53:40;;;;;;;2.63;2.43;;;;;;;;;;4992800;28;20613;-83
2022/01/01 13:56:10;;;;;;;2.73;2.53;;;;;;;;;;4992867;28;20249;-83
2022/01/01 13:58:42;;;;;;;3.00;2.80;;;;;;;;;;4993427;28;20681;-83
2022/01/01 14:01:10;;;;;;;3.73;3.43;;;;;;;;;;4993073;28;20302;-82
2022/01/01 14:03:40;;;;;;;2.40;2.20;;;;;;;;;;4993184;28;20301;-83
2022/01/01 14:06:10;;;;;;;5.43;4.90;;;;;;;;;;4992553;28;20340;-82
2022/01/01 14:08:37;;;;;;;5.37;4.70;;;;;;;;;;4993435;28;20203;-83
2022/01/01 14:11:06;;;;;;;6.10;5.40;;;;;;;;;;4993023;28;20235;-83
2022/01/01 14:13:35;;;;;;;2.27;2.07;;;;;;;;;;4992612;28;20200;-83
2022/01/01 14:16:16;;;;;;;4.97;3.97;;;;;;;;;;4993339;28;20196;-83
2022/01/01 14:18:45;;;;;;;3.90;3.27;;;;;;;;;;4992763;28;20563;-82
2022/01/01 14:21:14;;;;;;;6.63;4.80;;;;;;;;;;4991875;28;20235;-82
2022/01/01 14:23:42;;;;;;;4.83;3.10;;;;;;;;;;4993113;28;20226;-82
2022/01/01 14:26:15;;;;;;;6.60;3.43;;;;;;;;;;4993506;28;20289;-82
2022/01/01 14:28:44;;;;;;;2.80;2.57;;;;;;;;;;4992409;28;20227;-82
2022/01/01 14:31:11;;;;;;;5.90;4.60;;;;;;;;;;4993005;28;20200;-82
2022/01/01 14:33:38;;;;;;;3.47;3.17;;;;;;;;;;4993394;28;20204;-82
2022/01/01 14:36:08;;;;;;;5.00;4.50;;;;;;;;;;4992475;28;20253;-82
2022/01/01 14:38:38;;;;;;;3.90;3.50;;;;;;;;;;4992256;28;20205;-81
2022/01/01 14:41:07;;;;;;;3.47;3.17;;;;;;;;;;4992904;28;20190;-82
2022/01/01 14:43:35;;;;;;;3.83;3.00;;;;;;;;;;4992526;28;20200;-82
2022/01/01 14:46:04;;;;;;;4.83;3.60;;;;;;;;;;4994148;28;20225;-82
2022/01/01 14:48:36;;;;;;;6.77;5.40;;;;;;;;;;4996071;28;20211;-82
2022/01/01 14:51:10;;;;;;;5.17;4.57;;;;;;;;;;4996378;28;20207;-82